sensor_id;sensor_type;location;lat;lon;timestamp;temperature;humidity
47350;DHT22;33088;51.982;5.872;2023-02-04T00:01:51;7.10;99.90
47350;DHT22;33088;51.982;5.872;2023-02-04T00:04:17;7.10;99.90
47350;DHT22;33088;51.982;5.872;2023-02-04T00:06:42;7.10;99.90
47350;DHT22;33088;51.982;5.872;2023-02-04T00:09:08;7.10;99.90
47350;DHT22;33088;51.982;5.872;2023-02-04T00:11:34;7.10;99.90
47350;DHT22;33088;51.982;5.872;2023-02-04T00:13:59;7.10;99.90
47350;DHT22;33088;51.982;5.872;2023-02-04T00:16:25;7.00;99.90
47350;DHT22;33088;51.982;5.872;2023-02-04T00:18:51;7.00;99.90
47350;DHT22;33088;51.982;5.872;2023-02-04T00:21:16;6.90;99.90
47350;DHT22;33088;51.982;5.872;2023-02-04T00:23:42;7.00;99.90
47350;DHT22;33088;51.982;5.872;2023-02-04T00:26:08;6.90;99.90
47350;DHT22;33088;51.982;5.872;2023-02-04T00:28:33;6.90;99.90
47350;DHT22;33088;51.982;5.872;2023-02-04T00:30:59;6.90;99.90
47350;DHT22;33088;51.982;5.872;2023-02-04T00:33:24;6.90;99.90
47350;DHT22;33088;51.982;5.872;2023-02-04T00:35:50;6.90;99.90
47350;DHT22;33088;51.982;5.872;2023-02-04T00:38:16;6.80;99.90
47350;DHT22;33088;51.982;5.872;2023-02-04T00:40:42;6.80;99.90
47350;DHT22;33088;51.982;5.872;2023-02-04T00:43:07;6.80;99.90
47350;DHT22;33088;51.982;5.872;2023-02-04T00:45:33;6.80;99.90
47350;DHT22;33088;51.982;5.872;2023-02-04T00:47:59;6.70;99.90
47350;DHT22;33088;51.982;5.872;2023-02-04T00:50:24;6.70;99.90
47350;DHT22;33088;51.982;5.872;2023-02-04T00:52:50;6.60;99.90
47350;DHT22;33088;51.982;5.872;2023-02-04T00:55:17;6.60;99.90
47350;DHT22;33088;51.982;5.872;2023-02-04T00:57:43;6.60;99.90
47350;DHT22;33088;51.982;5.872;2023-02-04T01:00:12;6.60;99.90
47350;DHT22;33088;51.982;5.872;2023-02-04T01:02:38;6.60;99.90
47350;DHT22;33088;51.982;5.872;2023-02-04T01:05:06;6.60;99.90
47350;DHT22;33088;51.982;5.872;2023-02-04T01:07:32;6.50;99.90
47350;DHT22;33088;51.982;5.872;2023-02-04T01:09:58;6.50;99.90
47350;DHT22;33088;51.982;5.872;2023-02-04T01:12:24;6.40;99.90
47350;DHT22;33088;51.982;5.872;2023-02-04T01:14:53;6.40;99.90
47350;DHT22;33088;51.982;5.872;2023-02-04T01:17:19;6.30;99.90
47350;DHT22;33088;51.982;5.872;2023-02-04T01:19:45;6.20;99.90
47350;DHT22;33088;51.982;5.872;2023-02-04T01:22:11;6.20;99.90
47350;DHT22;33088;51.982;5.872;2023-02-04T01:24:37;6.10;99.90
47350;DHT22;33088;51.982;5.872;2023-02-04T01:27:21;6.10;99.90
47350;DHT22;33088;51.982;5.872;2023-02-04T01:29:47;6.20;99.90
47350;DHT22;33088;51.982;5.872;2023-02-04T01:32:12;6.10;99.90
47350;DHT22;33088;51.982;5.872;2023-02-04T01:34:38;6.10;99.90
47350;DHT22;33088;51.982;5.872;2023-02-04T01:37:04;6.20;99.90
47350;DHT22;33088;51.982;5.872;2023-02-04T01:39:29;6.10;99.90
47350;DHT22;33088;51.982;5.872;2023-02-04T01:41:55;6.10;99.90
47350;DHT22;33088;51.982;5.872;2023-02-04T01:44:22;6.20;99.90
47350;DHT22;33088;51.982;5.872;2023-02-04T01:46:47;6.20;99.90
47350;DHT22;33088;51.982;5.872;2023-02-04T01:49:13;6.20;99.90
47350;DHT22;33088;51.982;5.872;2023-02-04T01:51:39;6.20;99.90
47350;DHT22;33088;51.982;5.872;2023-02-04T01:54:05;6.20;99.90
47350;DHT22;33088;51.982;5.872;2023-02-04T01:56:33;6.20;99.90
47350;DHT22;33088;51.982;5.872;2023-02-04T01:58:59;6.30;99.90
47350;DHT22;33088;51.982;5.872;2023-02-04T02:01:39;6.10;99.90
47350;DHT22;33088;51.982;5.872;2023-02-04T02:04:14;6.10;99.90
47350;DHT22;33088;51.982;5.872;2023-02-04T02:06:44;6.10;99.90
47350;DHT22;33088;51.982;5.872;2023-02-04T02:09:11;6.00;99.90
47350;DHT22;33088;51.982;5.872;2023-02-04T02:11:37;6.00;99.90
47350;DHT22;33088;51.982;5.872;2023-02-04T02:14:03;6.00;99.90
47350;DHT22;33088;51.982;5.872;2023-02-04T02:16:29;6.00;99.90
47350;DHT22;33088;51.982;5.872;2023-02-04T02:18:55;5.90;99.90
47350;DHT22;33088;51.982;5.872;2023-02-04T02:21:40;5.90;99.90
47350;DHT22;33088;51.982;5.872;2023-02-04T02:24:28;5.90;99.90
47350;DHT22;33088;51.982;5.872;2023-02-04T02:26:56;5.80;99.90
47350;DHT22;33088;51.982;5.872;2023-02-04T02:29:24;5.80;99.90
47350;DHT22;33088;51.982;5.872;2023-02-04T02:31:50;5.70;99.90
47350;DHT22;33088;51.982;5.872;2023-02-04T02:34:16;5.70;99.90
47350;DHT22;33088;51.982;5.872;2023-02-04T02:36:42;5.60;99.90
47350;DHT22;33088;51.982;5.872;2023-02-04T02:39:08;5.50;99.90
47350;DHT22;33088;51.982;5.872;2023-02-04T02:41:33;5.40;99.90
47350;DHT22;33088;51.982;5.872;2023-02-04T02:44:00;5.30;99.90
47350;DHT22;33088;51.982;5.872;2023-02-04T02:46:26;5.30;99.90
47350;DHT22;33088;51.982;5.872;2023-02-04T02:48:52;5.20;99.90
47350;DHT22;33088;51.982;5.872;2023-02-04T02:51:18;5.20;99.90
47350;DHT22;33088;51.982;5.872;2023-02-04T02:53:45;5.10;99.90
47350;DHT22;33088;51.982;5.872;2023-02-04T02:56:12;5.00;99.90
47350;DHT22;33088;51.982;5.872;2023-02-04T02:58:38;4.90;99.90
47350;DHT22;33088;51.982;5.872;2023-02-04T03:01:07;5.00;99.90
47350;DHT22;33088;51.982;5.872;2023-02-04T03:03:38;5.00;99.90
47350;DHT22;33088;51.982;5.872;2023-02-04T03:06:07;5.00;99.90
47350;DHT22;33088;51.982;5.872;2023-02-04T03:08:36;4.80;99.90
47350;DHT22;33088;51.982;5.872;2023-02-04T03:11:02;4.60;99.90
47350;DHT22;33088;51.982;5.872;2023-02-04T03:13:28;4.70;99.90
47350;DHT22;33088;51.982;5.872;2023-02-04T03:15:55;4.50;99.90
47350;DHT22;33088;51.982;5.872;2023-02-04T03:18:21;4.50;99.90
47350;DHT22;33088;51.982;5.872;2023-02-04T03:20:49;4.40;99.90
47350;DHT22;33088;51.982;5.872;2023-02-04T03:23:15;4.40;99.90
47350;DHT22;33088;51.982;5.872;2023-02-04T03:25:42;4.40;99.90
47350;DHT22;33088;51.982;5.872;2023-02-04T03:28:08;4.40;99.90
47350;DHT22;33088;51.982;5.872;2023-02-04T03:30:35;4.40;99.90
47350;DHT22;33088;51.982;5.872;2023-02-04T03:33:00;4.40;99.90
47350;DHT22;33088;51.982;5.872;2023-02-04T03:35:26;4.50;99.90
47350;DHT22;33088;51.982;5.872;2023-02-04T03:37:52;4.50;99.90
47350;DHT22;33088;51.982;5.872;2023-02-04T03:40:18;4.50;99.90
47350;DHT22;33088;51.982;5.872;2023-02-04T03:42:43;4.40;99.90
47350;DHT22;33088;51.982;5.872;2023-02-04T03:45:09;4.30;99.90
47350;DHT22;33088;51.982;5.872;2023-02-04T03:47:34;4.30;99.90
47350;DHT22;33088;51.982;5.872;2023-02-04T03:50:00;4.40;99.90
47350;DHT22;33088;51.982;5.872;2023-02-04T03:52:26;4.30;99.90
47350;DHT22;33088;51.982;5.872;2023-02-04T03:54:52;4.30;99.90
47350;DHT22;33088;51.982;5.872;2023-02-04T03:57:17;4.10;99.90
47350;DHT22;33088;51.982;5.872;2023-02-04T03:59:43;4.10;99.90
47350;DHT22;33088;51.982;5.872;2023-02-04T04:02:09;4.10;99.90
47350;DHT22;33088;51.982;5.872;2023-02-04T04:04:34;4.00;99.90
47350;DHT22;33088;51.982;5.872;2023-02-04T04:07:00;4.00;99.90
47350;DHT22;33088;51.982;5.872;2023-02-04T04:09:26;3.90;99.90
47350;DHT22;33088;51.982;5.872;2023-02-04T04:11:51;3.80;99.90
47350;DHT22;33088;51.982;5.872;2023-02-04T04:14:17;3.80;99.90
47350;DHT22;33088;51.982;5.872;2023-02-04T04:16:43;3.80;99.90
47350;DHT22;33088;51.982;5.872;2023-02-04T04:19:08;3.90;99.90
47350;DHT22;33088;51.982;5.872;2023-02-04T04:21:34;3.90;99.90
47350;DHT22;33088;51.982;5.872;2023-02-04T04:23:59;3.90;99.90
47350;DHT22;33088;51.982;5.872;2023-02-04T04:26:25;3.90;99.90
47350;DHT22;33088;51.982;5.872;2023-02-04T04:28:51;4.00;99.90
47350;DHT22;33088;51.982;5.872;2023-02-04T04:31:16;4.00;99.90
47350;DHT22;33088;51.982;5.872;2023-02-04T04:33:42;4.00;99.90
47350;DHT22;33088;51.982;5.872;2023-02-04T04:36:08;3.90;99.90
47350;DHT22;33088;51.982;5.872;2023-02-04T04:38:33;3.90;99.90
47350;DHT22;33088;51.982;5.872;2023-02-04T04:40:59;3.80;99.90
47350;DHT22;33088;51.982;5.872;2023-02-04T04:43:25;3.70;99.90
47350;DHT22;33088;51.982;5.872;2023-02-04T04:45:51;3.80;99.90
47350;DHT22;33088;51.982;5.872;2023-02-04T04:48:17;3.70;99.90
47350;DHT22;33088;51.982;5.872;2023-02-04T04:50:42;3.70;99.90
47350;DHT22;33088;51.982;5.872;2023-02-04T04:53:08;3.70;99.90
47350;DHT22;33088;51.982;5.872;2023-02-04T04:55:39;3.70;99.90
47350;DHT22;33088;51.982;5.872;2023-02-04T04:58:06;3.60;99.90
47350;DHT22;33088;51.982;5.872;2023-02-04T05:00:32;3.70;99.90
47350;DHT22;33088;51.982;5.872;2023-02-04T05:02:58;3.70;99.90
47350;DHT22;33088;51.982;5.872;2023-02-04T05:05:24;3.80;99.90
47350;DHT22;33088;51.982;5.872;2023-02-04T05:07:50;3.90;99.90
47350;DHT22;33088;51.982;5.872;2023-02-04T05:10:16;3.90;99.90
47350;DHT22;33088;51.982;5.872;2023-02-04T05:12:41;4.00;99.90
47350;DHT22;33088;51.982;5.872;2023-02-04T05:15:07;4.10;99.90
47350;DHT22;33088;51.982;5.872;2023-02-04T05:17:33;4.30;99.90
47350;DHT22;33088;51.982;5.872;2023-02-04T05:19:59;4.30;99.90
47350;DHT22;33088;51.982;5.872;2023-02-04T05:22:24;4.40;99.90
47350;DHT22;33088;51.982;5.872;2023-02-04T05:24:50;4.40;99.90
47350;DHT22;33088;51.982;5.872;2023-02-04T05:27:15;4.50;99.90
47350;DHT22;33088;51.982;5.872;2023-02-04T05:29:41;4.60;99.90
47350;DHT22;33088;51.982;5.872;2023-02-04T05:32:07;4.70;99.90
47350;DHT22;33088;51.982;5.872;2023-02-04T05:34:32;4.80;99.90
47350;DHT22;33088;51.982;5.872;2023-02-04T05:36:58;4.90;99.90
47350;DHT22;33088;51.982;5.872;2023-02-04T05:39:24;4.90;99.90
47350;DHT22;33088;51.982;5.872;2023-02-04T05:41:49;4.90;99.90
47350;DHT22;33088;51.982;5.872;2023-02-04T05:44:15;4.90;99.90
47350;DHT22;33088;51.982;5.872;2023-02-04T05:46:40;4.90;99.90
47350;DHT22;33088;51.982;5.872;2023-02-04T05:49:06;4.90;99.90
47350;DHT22;33088;51.982;5.872;2023-02-04T05:51:32;4.90;99.90
47350;DHT22;33088;51.982;5.872;2023-02-04T05:53:58;4.80;99.90
47350;DHT22;33088;51.982;5.872;2023-02-04T05:56:23;4.90;99.90
47350;DHT22;33088;51.982;5.872;2023-02-04T05:58:52;4.80;99.90
47350;DHT22;33088;51.982;5.872;2023-02-04T06:01:18;4.70;99.90
47350;DHT22;33088;51.982;5.872;2023-02-04T06:03:43;4.80;99.90
47350;DHT22;33088;51.982;5.872;2023-02-04T06:06:09;4.90;99.90
47350;DHT22;33088;51.982;5.872;2023-02-04T06:08:35;4.90;99.90
47350;DHT22;33088;51.982;5.872;2023-02-04T06:11:00;4.90;99.90
47350;DHT22;33088;51.982;5.872;2023-02-04T06:13:26;4.90;99.90
47350;DHT22;33088;51.982;5.872;2023-02-04T06:15:51;4.80;99.90
47350;DHT22;33088;51.982;5.872;2023-02-04T06:18:17;4.80;99.90
47350;DHT22;33088;51.982;5.872;2023-02-04T06:20:43;4.80;99.90
47350;DHT22;33088;51.982;5.872;2023-02-04T06:23:08;4.80;99.90
47350;DHT22;33088;51.982;5.872;2023-02-04T06:25:34;4.90;99.90
47350;DHT22;33088;51.982;5.872;2023-02-04T06:28:00;4.90;99.90
47350;DHT22;33088;51.982;5.872;2023-02-04T06:30:26;4.80;99.90
47350;DHT22;33088;51.982;5.872;2023-02-04T06:32:51;4.90;99.90
47350;DHT22;33088;51.982;5.872;2023-02-04T06:35:20;4.80;99.90
47350;DHT22;33088;51.982;5.872;2023-02-04T06:37:45;4.90;99.90
47350;DHT22;33088;51.982;5.872;2023-02-04T06:40:12;4.80;99.90
47350;DHT22;33088;51.982;5.872;2023-02-04T06:42:37;4.90;99.90
47350;DHT22;33088;51.982;5.872;2023-02-04T06:45:03;4.80;99.90
47350;DHT22;33088;51.982;5.872;2023-02-04T06:47:29;4.90;99.90
47350;DHT22;33088;51.982;5.872;2023-02-04T06:49:55;4.90;99.90
47350;DHT22;33088;51.982;5.872;2023-02-04T06:52:20;4.90;99.90
47350;DHT22;33088;51.982;5.872;2023-02-04T06:54:46;4.90;99.90
47350;DHT22;33088;51.982;5.872;2023-02-04T06:57:12;4.90;99.90
47350;DHT22;33088;51.982;5.872;2023-02-04T06:59:38;4.90;99.90
47350;DHT22;33088;51.982;5.872;2023-02-04T07:02:06;4.90;99.90
47350;DHT22;33088;51.982;5.872;2023-02-04T07:04:33;4.90;99.90
47350;DHT22;33088;51.982;5.872;2023-02-04T07:06:59;5.00;99.90
47350;DHT22;33088;51.982;5.872;2023-02-04T07:09:25;5.00;99.90
47350;DHT22;33088;51.982;5.872;2023-02-04T07:11:51;5.00;99.90
47350;DHT22;33088;51.982;5.872;2023-02-04T07:14:18;5.00;99.90
47350;DHT22;33088;51.982;5.872;2023-02-04T07:16:44;5.00;99.90
47350;DHT22;33088;51.982;5.872;2023-02-04T07:19:10;5.00;99.90
47350;DHT22;33088;51.982;5.872;2023-02-04T07:21:35;5.00;99.90
47350;DHT22;33088;51.982;5.872;2023-02-04T07:24:01;5.00;99.90
47350;DHT22;33088;51.982;5.872;2023-02-04T07:26:27;5.00;99.90
47350;DHT22;33088;51.982;5.872;2023-02-04T07:28:52;5.00;99.90
47350;DHT22;33088;51.982;5.872;2023-02-04T07:31:18;5.00;99.90
47350;DHT22;33088;51.982;5.872;2023-02-04T07:33:43;5.00;99.90
47350;DHT22;33088;51.982;5.872;2023-02-04T07:36:09;5.10;99.90
47350;DHT22;33088;51.982;5.872;2023-02-04T07:38:35;5.10;99.90
47350;DHT22;33088;51.982;5.872;2023-02-04T07:41:00;5.10;99.90
47350;DHT22;33088;51.982;5.872;2023-02-04T07:43:26;5.10;99.90
47350;DHT22;33088;51.982;5.872;2023-02-04T07:45:51;5.20;99.90
47350;DHT22;33088;51.982;5.872;2023-02-04T07:48:17;5.20;99.90
47350;DHT22;33088;51.982;5.872;2023-02-04T07:50:43;5.20;99.90
47350;DHT22;33088;51.982;5.872;2023-02-04T07:53:08;5.30;99.90
47350;DHT22;33088;51.982;5.872;2023-02-04T07:55:34;5.30;99.90
47350;DHT22;33088;51.982;5.872;2023-02-04T07:58:00;5.30;99.90
47350;DHT22;33088;51.982;5.872;2023-02-04T08:00:25;5.40;99.90
47350;DHT22;33088;51.982;5.872;2023-02-04T08:02:51;5.40;99.90
47350;DHT22;33088;51.982;5.872;2023-02-04T08:05:17;5.50;99.90
47350;DHT22;33088;51.982;5.872;2023-02-04T08:07:42;5.50;99.90
47350;DHT22;33088;51.982;5.872;2023-02-04T08:10:10;5.60;99.90
47350;DHT22;33088;51.982;5.872;2023-02-04T08:12:36;5.60;99.90
47350;DHT22;33088;51.982;5.872;2023-02-04T08:15:02;5.70;99.90
47350;DHT22;33088;51.982;5.872;2023-02-04T08:17:28;5.70;99.90
47350;DHT22;33088;51.982;5.872;2023-02-04T08:19:54;5.80;99.90
47350;DHT22;33088;51.982;5.872;2023-02-04T08:22:19;5.80;99.90
47350;DHT22;33088;51.982;5.872;2023-02-04T08:24:45;5.90;99.90
47350;DHT22;33088;51.982;5.872;2023-02-04T08:27:11;5.90;99.90
47350;DHT22;33088;51.982;5.872;2023-02-04T08:29:37;6.00;99.90
47350;DHT22;33088;51.982;5.872;2023-02-04T08:32:03;6.10;99.90
47350;DHT22;33088;51.982;5.872;2023-02-04T08:34:29;6.10;99.90
47350;DHT22;33088;51.982;5.872;2023-02-04T08:36:54;6.20;99.90
47350;DHT22;33088;51.982;5.872;2023-02-04T08:39:20;6.20;99.90
47350;DHT22;33088;51.982;5.872;2023-02-04T08:41:46;6.20;99.90
47350;DHT22;33088;51.982;5.872;2023-02-04T08:44:14;6.30;99.90
47350;DHT22;33088;51.982;5.872;2023-02-04T08:46:40;6.30;99.90
47350;DHT22;33088;51.982;5.872;2023-02-04T08:49:05;6.30;99.90
47350;DHT22;33088;51.982;5.872;2023-02-04T08:51:31;6.30;99.90
47350;DHT22;33088;51.982;5.872;2023-02-04T08:53:57;6.30;99.90
47350;DHT22;33088;51.982;5.872;2023-02-04T08:56:23;6.30;99.90
47350;DHT22;33088;51.982;5.872;2023-02-04T08:58:48;6.50;99.90
47350;DHT22;33088;51.982;5.872;2023-02-04T09:01:14;6.50;99.90
47350;DHT22;33088;51.982;5.872;2023-02-04T09:03:40;6.60;99.90
47350;DHT22;33088;51.982;5.872;2023-02-04T09:06:06;6.70;99.90
47350;DHT22;33088;51.982;5.872;2023-02-04T09:08:32;6.70;99.90
47350;DHT22;33088;51.982;5.872;2023-02-04T09:10:57;6.80;99.90
47350;DHT22;33088;51.982;5.872;2023-02-04T09:13:23;6.80;99.90
47350;DHT22;33088;51.982;5.872;2023-02-04T09:15:49;7.00;99.90
47350;DHT22;33088;51.982;5.872;2023-02-04T09:18:14;7.10;99.90
47350;DHT22;33088;51.982;5.872;2023-02-04T09:20:47;7.30;99.90
47350;DHT22;33088;51.982;5.872;2023-02-04T09:23:13;7.30;99.90
47350;DHT22;33088;51.982;5.872;2023-02-04T09:25:40;7.30;99.90
47350;DHT22;33088;51.982;5.872;2023-02-04T09:28:06;7.40;99.90
47350;DHT22;33088;51.982;5.872;2023-02-04T09:30:34;7.40;99.90
47350;DHT22;33088;51.982;5.872;2023-02-04T09:33:00;7.40;99.90
47350;DHT22;33088;51.982;5.872;2023-02-04T09:35:26;7.50;99.90
47350;DHT22;33088;51.982;5.872;2023-02-04T09:37:52;7.40;99.90
47350;DHT22;33088;51.982;5.872;2023-02-04T09:40:19;7.50;99.90
47350;DHT22;33088;51.982;5.872;2023-02-04T09:42:49;7.40;99.90
47350;DHT22;33088;51.982;5.872;2023-02-04T09:45:24;7.30;99.90
47350;DHT22;33088;51.982;5.872;2023-02-04T09:47:52;7.30;99.90
47350;DHT22;33088;51.982;5.872;2023-02-04T09:50:21;7.30;99.90
47350;DHT22;33088;51.982;5.872;2023-02-04T09:52:50;7.20;99.90
47350;DHT22;33088;51.982;5.872;2023-02-04T09:55:19;7.20;99.90
47350;DHT22;33088;51.982;5.872;2023-02-04T09:57:46;7.30;99.90
47350;DHT22;33088;51.982;5.872;2023-02-04T10:00:20;7.40;99.90
47350;DHT22;33088;51.982;5.872;2023-02-04T10:02:46;7.60;99.90
47350;DHT22;33088;51.982;5.872;2023-02-04T10:05:14;7.80;99.90
47350;DHT22;33088;51.982;5.872;2023-02-04T10:07:40;7.80;99.90
47350;DHT22;33088;51.982;5.872;2023-02-04T10:10:14;7.90;99.90
47350;DHT22;33088;51.982;5.872;2023-02-04T10:12:40;7.90;99.90
47350;DHT22;33088;51.982;5.872;2023-02-04T10:15:11;7.90;99.90
47350;DHT22;33088;51.982;5.872;2023-02-04T10:17:37;7.90;99.90
47350;DHT22;33088;51.982;5.872;2023-02-04T10:20:03;7.90;99.90
47350;DHT22;33088;51.982;5.872;2023-02-04T10:22:29;7.90;99.90
47350;DHT22;33088;51.982;5.872;2023-02-04T10:24:55;8.00;99.90
47350;DHT22;33088;51.982;5.872;2023-02-04T10:27:20;8.00;99.90
47350;DHT22;33088;51.982;5.872;2023-02-04T10:29:57;7.90;99.90
47350;DHT22;33088;51.982;5.872;2023-02-04T10:32:28;8.00;99.90
47350;DHT22;33088;51.982;5.872;2023-02-04T10:34:59;8.00;99.90
47350;DHT22;33088;51.982;5.872;2023-02-04T10:37:26;8.00;99.90
47350;DHT22;33088;51.982;5.872;2023-02-04T10:39:52;8.10;99.90
47350;DHT22;33088;51.982;5.872;2023-02-04T10:42:23;8.10;99.90
47350;DHT22;33088;51.982;5.872;2023-02-04T10:44:49;8.10;99.90
47350;DHT22;33088;51.982;5.872;2023-02-04T10:49:58;8.40;99.90
47350;DHT22;33088;51.982;5.872;2023-02-04T10:52:37;8.60;99.90
47350;DHT22;33088;51.982;5.872;2023-02-04T10:55:05;8.60;99.90
47350;DHT22;33088;51.982;5.872;2023-02-04T10:57:35;8.90;99.90
47350;DHT22;33088;51.982;5.872;2023-02-04T11:00:04;9.00;99.90
47350;DHT22;33088;51.982;5.872;2023-02-04T11:02:41;9.00;99.90
47350;DHT22;33088;51.982;5.872;2023-02-04T11:05:22;9.00;99.90
47350;DHT22;33088;51.982;5.872;2023-02-04T11:07:49;9.10;99.90
47350;DHT22;33088;51.982;5.872;2023-02-04T11:10:18;9.10;99.90
47350;DHT22;33088;51.982;5.872;2023-02-04T11:15:44;9.20;99.90
47350;DHT22;33088;51.982;5.872;2023-02-04T11:18:25;9.30;99.90
47350;DHT22;33088;51.982;5.872;2023-02-04T11:20:57;9.10;99.90
47350;DHT22;33088;51.982;5.872;2023-02-04T11:33:45;9.00;99.90
47350;DHT22;33088;51.982;5.872;2023-02-04T11:36:12;9.00;99.90
47350;DHT22;33088;51.982;5.872;2023-02-04T11:38:46;9.10;99.90
47350;DHT22;33088;51.982;5.872;2023-02-04T11:41:22;9.20;99.90
47350;DHT22;33088;51.982;5.872;2023-02-04T11:43:53;9.30;99.90
47350;DHT22;33088;51.982;5.872;2023-02-04T11:46:20;9.20;99.90
47350;DHT22;33088;51.982;5.872;2023-02-04T11:48:45;9.30;99.90
47350;DHT22;33088;51.982;5.872;2023-02-04T11:51:16;9.30;99.90
47350;DHT22;33088;51.982;5.872;2023-02-04T11:53:42;9.30;99.90
47350;DHT22;33088;51.982;5.872;2023-02-04T11:56:20;9.40;99.90
47350;DHT22;33088;51.982;5.872;2023-02-04T11:58:48;9.40;99.90
47350;DHT22;33088;51.982;5.872;2023-02-04T12:01:17;9.30;99.90
47350;DHT22;33088;51.982;5.872;2023-02-04T12:03:56;9.40;99.90
47350;DHT22;33088;51.982;5.872;2023-02-04T12:06:24;9.40;99.90
47350;DHT22;33088;51.982;5.872;2023-02-04T12:08:50;9.40;99.90
47350;DHT22;33088;51.982;5.872;2023-02-04T12:11:27;9.30;99.90
47350;DHT22;33088;51.982;5.872;2023-02-04T12:13:57;9.50;99.90
47350;DHT22;33088;51.982;5.872;2023-02-04T12:16:23;9.50;99.90
47350;DHT22;33088;51.982;5.872;2023-02-04T12:18:49;9.50;99.90
47350;DHT22;33088;51.982;5.872;2023-02-04T12:21:16;9.50;99.90
47350;DHT22;33088;51.982;5.872;2023-02-04T12:23:43;9.60;99.90
47350;DHT22;33088;51.982;5.872;2023-02-04T12:26:09;9.50;99.90
47350;DHT22;33088;51.982;5.872;2023-02-04T12:28:35;9.60;99.90
47350;DHT22;33088;51.982;5.872;2023-02-04T12:31:01;9.70;99.90
47350;DHT22;33088;51.982;5.872;2023-02-04T12:33:26;9.80;99.90
47350;DHT22;33088;51.982;5.872;2023-02-04T12:35:52;10.00;99.90
47350;DHT22;33088;51.982;5.872;2023-02-04T12:38:18;10.40;99.90
47350;DHT22;33088;51.982;5.872;2023-02-04T12:40:44;10.30;99.90
47350;DHT22;33088;51.982;5.872;2023-02-04T12:43:10;10.40;99.90
47350;DHT22;33088;51.982;5.872;2023-02-04T12:45:36;10.50;99.90
47350;DHT22;33088;51.982;5.872;2023-02-04T12:48:03;10.30;99.90
47350;DHT22;33088;51.982;5.872;2023-02-04T12:50:28;10.60;99.90
47350;DHT22;33088;51.982;5.872;2023-02-04T12:52:56;10.70;99.90
47350;DHT22;33088;51.982;5.872;2023-02-04T12:55:23;10.70;99.90
47350;DHT22;33088;51.982;5.872;2023-02-04T12:57:50;10.70;99.90
47350;DHT22;33088;51.982;5.872;2023-02-04T13:00:19;10.50;99.90
47350;DHT22;33088;51.982;5.872;2023-02-04T13:02:45;10.40;99.90
47350;DHT22;33088;51.982;5.872;2023-02-04T13:05:11;10.30;99.90
47350;DHT22;33088;51.982;5.872;2023-02-04T13:07:38;10.30;99.90
47350;DHT22;33088;51.982;5.872;2023-02-04T13:10:06;10.40;99.90
47350;DHT22;33088;51.982;5.872;2023-02-04T13:12:32;10.40;99.90
47350;DHT22;33088;51.982;5.872;2023-02-04T13:14:57;10.40;99.90
47350;DHT22;33088;51.982;5.872;2023-02-04T13:17:23;10.30;99.90
47350;DHT22;33088;51.982;5.872;2023-02-04T13:19:49;10.30;99.90
47350;DHT22;33088;51.982;5.872;2023-02-04T13:22:14;10.40;99.90
47350;DHT22;33088;51.982;5.872;2023-02-04T13:24:40;10.20;99.90
47350;DHT22;33088;51.982;5.872;2023-02-04T13:27:06;10.10;99.90
47350;DHT22;33088;51.982;5.872;2023-02-04T13:29:32;10.00;99.90
47350;DHT22;33088;51.982;5.872;2023-02-04T13:31:57;9.80;99.90
47350;DHT22;33088;51.982;5.872;2023-02-04T13:34:23;9.80;99.90
47350;DHT22;33088;51.982;5.872;2023-02-04T13:36:49;9.50;99.90
47350;DHT22;33088;51.982;5.872;2023-02-04T13:39:14;9.60;99.90
47350;DHT22;33088;51.982;5.872;2023-02-04T13:41:40;9.40;99.90
47350;DHT22;33088;51.982;5.872;2023-02-04T13:44:06;9.30;99.90
47350;DHT22;33088;51.982;5.872;2023-02-04T13:46:32;9.30;99.90
47350;DHT22;33088;51.982;5.872;2023-02-04T13:48:58;9.30;99.90
47350;DHT22;33088;51.982;5.872;2023-02-04T13:51:24;9.20;99.90
47350;DHT22;33088;51.982;5.872;2023-02-04T13:53:49;9.10;99.90
47350;DHT22;33088;51.982;5.872;2023-02-04T13:56:15;9.10;99.90
47350;DHT22;33088;51.982;5.872;2023-02-04T13:58:41;9.10;99.90
47350;DHT22;33088;51.982;5.872;2023-02-04T14:01:12;9.10;99.90
47350;DHT22;33088;51.982;5.872;2023-02-04T14:03:38;9.10;99.90
47350;DHT22;33088;51.982;5.872;2023-02-04T14:06:04;9.10;99.90
47350;DHT22;33088;51.982;5.872;2023-02-04T14:08:30;9.10;99.90
47350;DHT22;33088;51.982;5.872;2023-02-04T14:10:55;9.20;99.90
47350;DHT22;33088;51.982;5.872;2023-02-04T14:13:21;9.20;99.90
47350;DHT22;33088;51.982;5.872;2023-02-04T14:15:47;9.20;99.90
47350;DHT22;33088;51.982;5.872;2023-02-04T14:18:12;9.20;99.90
47350;DHT22;33088;51.982;5.872;2023-02-04T14:20:41;9.20;99.90
47350;DHT22;33088;51.982;5.872;2023-02-04T14:23:07;9.30;99.90
47350;DHT22;33088;51.982;5.872;2023-02-04T14:25:33;9.30;99.90
47350;DHT22;33088;51.982;5.872;2023-02-04T14:27:58;9.40;99.90
47350;DHT22;33088;51.982;5.872;2023-02-04T14:30:27;9.30;99.90
47350;DHT22;33088;51.982;5.872;2023-02-04T14:32:54;9.30;99.90
47350;DHT22;33088;51.982;5.872;2023-02-04T14:35:20;9.30;99.90
47350;DHT22;33088;51.982;5.872;2023-02-04T14:37:46;9.20;99.90
47350;DHT22;33088;51.982;5.872;2023-02-04T14:40:13;9.10;99.90
47350;DHT22;33088;51.982;5.872;2023-02-04T14:42:39;9.10;99.90
47350;DHT22;33088;51.982;5.872;2023-02-04T14:45:05;9.00;99.90
47350;DHT22;33088;51.982;5.872;2023-02-04T14:47:33;8.90;99.90
47350;DHT22;33088;51.982;5.872;2023-02-04T14:49:59;8.90;99.90
47350;DHT22;33088;51.982;5.872;2023-02-04T14:52:25;8.90;99.90
47350;DHT22;33088;51.982;5.872;2023-02-04T14:54:50;8.80;99.90
47350;DHT22;33088;51.982;5.872;2023-02-04T14:57:16;8.80;99.90
47350;DHT22;33088;51.982;5.872;2023-02-04T14:59:42;8.70;99.90
47350;DHT22;33088;51.982;5.872;2023-02-04T15:02:09;8.70;99.90
47350;DHT22;33088;51.982;5.872;2023-02-04T15:04:35;8.80;99.90
47350;DHT22;33088;51.982;5.872;2023-02-04T15:07:01;8.60;99.90
47350;DHT22;33088;51.982;5.872;2023-02-04T15:09:27;8.60;99.90
47350;DHT22;33088;51.982;5.872;2023-02-04T15:11:53;8.60;99.90
47350;DHT22;33088;51.982;5.872;2023-02-04T15:14:19;8.60;99.90
47350;DHT22;33088;51.982;5.872;2023-02-04T15:16:45;8.60;99.90
47350;DHT22;33088;51.982;5.872;2023-02-04T15:19:17;8.70;99.90
47350;DHT22;33088;51.982;5.872;2023-02-04T15:21:43;8.70;99.90
47350;DHT22;33088;51.982;5.872;2023-02-04T15:24:09;8.70;99.90
47350;DHT22;33088;51.982;5.872;2023-02-04T15:26:35;8.80;99.90
47350;DHT22;33088;51.982;5.872;2023-02-04T15:29:01;8.80;99.90
47350;DHT22;33088;51.982;5.872;2023-02-04T15:31:26;8.80;99.90
47350;DHT22;33088;51.982;5.872;2023-02-04T15:33:52;8.70;99.90
47350;DHT22;33088;51.982;5.872;2023-02-04T15:36:18;8.70;99.90
47350;DHT22;33088;51.982;5.872;2023-02-04T15:38:44;8.70;99.90
47350;DHT22;33088;51.982;5.872;2023-02-04T15:41:10;8.70;99.90
47350;DHT22;33088;51.982;5.872;2023-02-04T15:43:35;8.70;99.90
47350;DHT22;33088;51.982;5.872;2023-02-04T15:46:01;8.70;99.90
47350;DHT22;33088;51.982;5.872;2023-02-04T15:48:27;8.70;99.90
47350;DHT22;33088;51.982;5.872;2023-02-04T15:50:53;8.80;99.90
47350;DHT22;33088;51.982;5.872;2023-02-04T15:53:19;8.70;99.90
47350;DHT22;33088;51.982;5.872;2023-02-04T15:55:45;8.70;99.90
47350;DHT22;33088;51.982;5.872;2023-02-04T15:58:11;8.70;99.90